sensor_id;sensor_type;location;lat;lon;timestamp;pressure;altitude;pressure_sealevel;temperature;humidity
6835;BME280;3455;42.150;24.734;2023-04-26T00:01:50;67046.03;;;15.83;78.69
6835;BME280;3455;42.150;24.734;2023-04-26T00:04:17;67028.00;;;15.89;78.22
6835;BME280;3455;42.150;24.734;2023-04-26T00:06:45;67034.28;;;15.90;78.93
6835;BME280;3455;42.150;24.734;2023-04-26T00:09:13;67075.72;;;16.13;77.65
6835;BME280;3455;42.150;24.734;2023-04-26T00:11:40;67057.72;;;16.09;77.29
6835;BME280;3455;42.150;24.734;2023-04-26T00:14:07;67048.94;;;15.85;78.60
6835;BME280;3455;42.150;24.734;2023-04-26T00:16:33;67070.75;;;16.07;77.41
6835;BME280;3455;42.150;24.734;2023-04-26T00:19:00;67000.41;;;15.51;79.73
6835;BME280;3455;42.150;24.734;2023-04-26T00:21:28;66995.53;;;15.61;79.14
6835;BME280;3455;42.150;24.734;2023-04-26T00:23:56;66975.34;;;15.47;81.03
6835;BME280;3455;42.150;24.734;2023-04-26T00:26:23;66992.75;;;15.63;80.32
6835;BME280;3455;42.150;24.734;2023-04-26T00:28:50;67047.78;;;15.84;79.33
6835;BME280;3455;42.150;24.734;2023-04-26T00:31:16;67024.09;;;15.68;79.60
6835;BME280;3455;42.150;24.734;2023-04-26T00:33:43;67006.78;;;15.68;80.37
6835;BME280;3455;42.150;24.734;2023-04-26T00:36:11;67030.44;;;15.96;78.98
6835;BME280;3455;42.150;24.734;2023-04-26T00:38:38;67053.19;;;16.09;77.95
6835;BME280;3455;42.150;24.734;2023-04-26T00:41:07;67034.06;;;15.92;79.29
6835;BME280;3455;42.150;24.734;2023-04-26T00:43:33;67049.25;;;15.99;78.34
6835;BME280;3455;42.150;24.734;2023-04-26T00:46:00;67072.13;;;16.06;77.77
6835;BME280;3455;42.150;24.734;2023-04-26T00:48:27;67085.59;;;16.22;76.40
6835;BME280;3455;42.150;24.734;2023-04-26T00:50:54;67075.16;;;16.13;77.65
6835;BME280;3455;42.150;24.734;2023-04-26T00:53:21;67061.69;;;15.96;77.04
6835;BME280;3455;42.150;24.734;2023-04-26T00:55:48;67018.22;;;16.08;76.52
6835;BME280;3455;42.150;24.734;2023-04-26T00:58:18;66999.19;;;15.95;76.39
6835;BME280;3455;42.150;24.734;2023-04-26T01:00:45;67039.19;;;15.81;76.26
6835;BME280;3455;42.150;24.734;2023-04-26T01:03:12;67009.00;;;15.77;77.04
6835;BME280;3455;42.150;24.734;2023-04-26T01:05:39;67006.53;;;15.70;75.32
6835;BME280;3455;42.150;24.734;2023-04-26T01:08:06;66997.88;;;15.40;76.47
6835;BME280;3455;42.150;24.734;2023-04-26T01:10:34;67011.34;;;15.56;75.99
6835;BME280;3455;42.150;24.734;2023-04-26T01:13:02;66982.56;;;15.40;75.62
6835;BME280;3455;42.150;24.734;2023-04-26T01:15:30;66981.16;;;15.52;75.33
6835;BME280;3455;42.150;24.734;2023-04-26T01:17:58;67069.03;;;15.04;77.23
6835;BME280;3455;42.150;24.734;2023-04-26T01:20:24;66944.75;;;15.13;75.38
6835;BME280;3455;42.150;24.734;2023-04-26T01:22:52;66977.94;;;15.25;75.83
6835;BME280;3455;42.150;24.734;2023-04-26T01:25:20;66963.81;;;15.14;76.56
6835;BME280;3455;42.150;24.734;2023-04-26T01:27:46;66989.50;;;15.46;75.22
6835;BME280;3455;42.150;24.734;2023-04-26T01:30:13;67026.19;;;15.49;75.48
6835;BME280;3455;42.150;24.734;2023-04-26T01:32:40;66983.50;;;15.43;74.70
6835;BME280;3455;42.150;24.734;2023-04-26T01:35:07;66999.03;;;15.52;74.19
6835;BME280;3455;42.150;24.734;2023-04-26T01:37:34;66963.81;;;15.14;75.89
6835;BME280;3455;42.150;24.734;2023-04-26T01:40:02;67118.34;;;15.13;75.25
6835;BME280;3455;42.150;24.734;2023-04-26T01:42:30;66941.75;;;15.17;75.54
6835;BME280;3455;42.150;24.734;2023-04-26T01:44:57;66927.72;;;15.01;75.24
6835;BME280;3455;42.150;24.734;2023-04-26T01:47:24;66958.22;;;15.18;74.86
6835;BME280;3455;42.150;24.734;2023-04-26T01:49:51;66954.03;;;15.10;74.89
6835;BME280;3455;42.150;24.734;2023-04-26T01:52:18;66982.34;;;15.08;75.70
6835;BME280;3455;42.150;24.734;2023-04-26T01:54:45;66954.97;;;15.02;75.59
6835;BME280;3455;42.150;24.734;2023-04-26T01:57:13;66940.38;;;15.07;75.81
6835;BME280;3455;42.150;24.734;2023-04-26T01:59:40;66926.94;;;14.91;76.51
6835;BME280;3455;42.150;24.734;2023-04-26T02:02:07;66925.75;;;14.78;76.89
6835;BME280;3455;42.150;24.734;2023-04-26T02:04:34;66928.44;;;14.83;76.55
6835;BME280;3455;42.150;24.734;2023-04-26T02:07:01;66945.25;;;14.98;76.03
6835;BME280;3455;42.150;24.734;2023-04-26T02:09:27;66955.22;;;14.89;75.94
6835;BME280;3455;42.150;24.734;2023-04-26T02:11:54;66908.59;;;14.84;75.73
6835;BME280;3455;42.150;24.734;2023-04-26T02:14:22;66926.47;;;14.61;76.64
6835;BME280;3455;42.150;24.734;2023-04-26T02:16:49;66927.28;;;14.59;76.68
6835;BME280;3455;42.150;24.734;2023-04-26T02:19:16;66936.19;;;14.54;76.84
6835;BME280;3455;42.150;24.734;2023-04-26T02:21:50;66910.69;;;14.76;76.61
6835;BME280;3455;42.150;24.734;2023-04-26T02:24:17;66904.47;;;14.64;75.57
6835;BME280;3455;42.150;24.734;2023-04-26T02:26:44;66861.56;;;14.60;74.89
6835;BME280;3455;42.150;24.734;2023-04-26T02:29:11;66961.47;;;15.12;73.24
6835;BME280;3455;42.150;24.734;2023-04-26T02:31:39;67016.22;;;15.36;72.89
6835;BME280;3455;42.150;24.734;2023-04-26T02:34:05;66981.84;;;15.35;71.60
6835;BME280;3455;42.150;24.734;2023-04-26T02:36:33;67009.03;;;15.32;71.59
6835;BME280;3455;42.150;24.734;2023-04-26T02:39:00;66992.41;;;15.49;70.03
6835;BME280;3455;42.150;24.734;2023-04-26T02:41:26;66978.88;;;15.28;70.41
6835;BME280;3455;42.150;24.734;2023-04-26T02:43:53;66937.47;;;14.82;70.98
6835;BME280;3455;42.150;24.734;2023-04-26T02:46:20;66971.81;;;14.94;71.16
6835;BME280;3455;42.150;24.734;2023-04-26T02:48:48;66923.44;;;14.88;71.63
6835;BME280;3455;42.150;24.734;2023-04-26T02:51:15;66968.69;;;15.05;71.59
6835;BME280;3455;42.150;24.734;2023-04-26T02:53:41;66949.41;;;15.06;72.36
6835;BME280;3455;42.150;24.734;2023-04-26T02:56:08;66910.91;;;14.86;73.42
6835;BME280;3455;42.150;24.734;2023-04-26T02:58:35;66940.38;;;14.85;73.35
6835;BME280;3455;42.150;24.734;2023-04-26T03:01:02;66941.78;;;14.72;74.29
6835;BME280;3455;42.150;24.734;2023-04-26T03:03:29;66931.56;;;14.84;74.14
6835;BME280;3455;42.150;24.734;2023-04-26T03:05:58;66966.81;;;15.10;73.80
6835;BME280;3455;42.150;24.734;2023-04-26T03:08:24;66881.72;;;14.51;75.34
6835;BME280;3455;42.150;24.734;2023-04-26T03:10:51;66880.81;;;14.59;75.71
6835;BME280;3455;42.150;24.734;2023-04-26T03:13:18;66949.31;;;15.02;74.03
6835;BME280;3455;42.150;24.734;2023-04-26T03:15:45;66991.66;;;15.16;73.59
6835;BME280;3455;42.150;24.734;2023-04-26T03:18:11;66950.00;;;14.84;74.33
6835;BME280;3455;42.150;24.734;2023-04-26T03:20:38;66987.94;;;15.04;74.35
6835;BME280;3455;42.150;24.734;2023-04-26T03:23:06;66957.78;;;15.00;74.65
6835;BME280;3455;42.150;24.734;2023-04-26T03:25:33;66946.78;;;14.79;75.62
6835;BME280;3455;42.150;24.734;2023-04-26T03:28:00;66907.00;;;14.41;77.28
6835;BME280;3455;42.150;24.734;2023-04-26T03:30:28;66932.97;;;14.83;75.78
6835;BME280;3455;42.150;24.734;2023-04-26T03:32:54;66925.31;;;14.71;76.64
6835;BME280;3455;42.150;24.734;2023-04-26T03:35:21;66942.72;;;14.64;77.35
6835;BME280;3455;42.150;24.734;2023-04-26T03:37:48;66935.41;;;14.67;77.32
6835;BME280;3455;42.150;24.734;2023-04-26T03:40:16;66944.91;;;14.84;77.10
6835;BME280;3455;42.150;24.734;2023-04-26T03:42:43;66912.81;;;14.69;77.42
6835;BME280;3455;42.150;24.734;2023-04-26T03:45:10;66935.97;;;14.90;76.36
6835;BME280;3455;42.150;24.734;2023-04-26T03:47:37;66919.28;;;14.79;77.08
6835;BME280;3455;42.150;24.734;2023-04-26T03:50:05;66932.50;;;14.75;77.53
6835;BME280;3455;42.150;24.734;2023-04-26T03:52:32;66906.75;;;14.44;78.57
6835;BME280;3455;42.150;24.734;2023-04-26T03:54:59;66875.34;;;14.23;79.99
6835;BME280;3455;42.150;24.734;2023-04-26T03:57:27;66932.81;;;14.44;79.47
6835;BME280;3455;42.150;24.734;2023-04-26T03:59:54;66863.19;;;14.34;79.83
6835;BME280;3455;42.150;24.734;2023-04-26T04:02:20;66911.63;;;14.46;79.79
6835;BME280;3455;42.150;24.734;2023-04-26T04:04:48;66804.78;;;14.32;80.38
6835;BME280;3455;42.150;24.734;2023-04-26T04:07:14;66890.53;;;14.40;80.37
6835;BME280;3455;42.150;24.734;2023-04-26T04:09:42;66919.63;;;14.59;79.81
6835;BME280;3455;42.150;24.734;2023-04-26T04:12:08;66912.19;;;14.46;79.84
6835;BME280;3455;42.150;24.734;2023-04-26T04:14:36;66903.28;;;14.52;79.93
6835;BME280;3455;42.150;24.734;2023-04-26T04:17:03;66898.41;;;14.27;80.43
6835;BME280;3455;42.150;24.734;2023-04-26T04:19:30;66894.72;;;14.26;80.75
6835;BME280;3455;42.150;24.734;2023-04-26T04:21:57;66825.91;;;14.15;80.39
6835;BME280;3455;42.150;24.734;2023-04-26T04:24:24;66882.75;;;14.02;80.59
6835;BME280;3455;42.150;24.734;2023-04-26T04:26:51;66841.41;;;13.79;80.73
6835;BME280;3455;42.150;24.734;2023-04-26T04:29:17;66868.28;;;14.12;79.93
6835;BME280;3455;42.150;24.734;2023-04-26T04:31:45;66869.66;;;14.11;79.37
6835;BME280;3455;42.150;24.734;2023-04-26T04:34:12;66904.69;;;14.28;78.69
6835;BME280;3455;42.150;24.734;2023-04-26T04:36:40;66906.19;;;14.32;78.44
6835;BME280;3455;42.150;24.734;2023-04-26T04:39:07;66883.13;;;14.38;78.09
6835;BME280;3455;42.150;24.734;2023-04-26T04:41:40;66931.22;;;14.47;77.76
6835;BME280;3455;42.150;24.734;2023-04-26T04:44:12;66947.91;;;14.69;77.90
6835;BME280;3455;42.150;24.734;2023-04-26T04:46:40;66960.56;;;14.75;77.63
6835;BME280;3455;42.150;24.734;2023-04-26T04:49:08;66986.31;;;15.07;76.83
6835;BME280;3455;42.150;24.734;2023-04-26T04:51:35;66940.84;;;14.81;75.92
6835;BME280;3455;42.150;24.734;2023-04-26T04:54:09;66983.97;;;15.16;75.75
6835;BME280;3455;42.150;24.734;2023-04-26T04:56:36;67007.16;;;15.48;74.55
6835;BME280;3455;42.150;24.734;2023-04-26T04:59:03;67028.84;;;15.65;72.99
6835;BME280;3455;42.150;24.734;2023-04-26T05:01:30;67045.66;;;15.69;72.43
6835;BME280;3455;42.150;24.734;2023-04-26T05:03:57;67091.53;;;16.09;70.88
6835;BME280;3455;42.150;24.734;2023-04-26T05:06:26;67084.06;;;16.30;69.57
6835;BME280;3455;42.150;24.734;2023-04-26T05:08:53;67122.75;;;16.32;69.20
6835;BME280;3455;42.150;24.734;2023-04-26T05:11:19;67136.78;;;16.61;68.67
6835;BME280;3455;42.150;24.734;2023-04-26T05:13:47;67165.56;;;17.00;66.72
6835;BME280;3455;42.150;24.734;2023-04-26T05:16:14;67167.66;;;17.42;65.25
6835;BME280;3455;42.150;24.734;2023-04-26T05:18:41;67236.88;;;17.58;66.03
6835;BME280;3455;42.150;24.734;2023-04-26T05:21:08;67247.69;;;17.70;65.40
6835;BME280;3455;42.150;24.734;2023-04-26T05:23:36;67293.41;;;18.28;65.05
6835;BME280;3455;42.150;24.734;2023-04-26T05:26:03;67435.13;;;19.06;60.86
6835;BME280;3455;42.150;24.734;2023-04-26T05:28:30;67535.88;;;19.95;58.48
6835;BME280;3455;42.150;24.734;2023-04-26T05:30:57;67500.38;;;20.07;57.29
6835;BME280;3455;42.150;24.734;2023-04-26T05:33:24;67611.34;;;20.09;56.93
6835;BME280;3455;42.150;24.734;2023-04-26T05:35:50;67598.25;;;20.66;55.02
6835;BME280;3455;42.150;24.734;2023-04-26T05:38:18;67668.59;;;21.34;53.35
6835;BME280;3455;42.150;24.734;2023-04-26T05:40:47;67641.78;;;20.95;51.34
6835;BME280;3455;42.150;24.734;2023-04-26T05:43:14;67671.56;;;21.10;49.78
6835;BME280;3455;42.150;24.734;2023-04-26T05:45:49;67592.41;;;20.60;50.08
6835;BME280;3455;42.150;24.734;2023-04-26T05:48:16;67599.28;;;20.89;50.38
6835;BME280;3455;42.150;24.734;2023-04-26T05:50:43;67692.84;;;21.58;46.92
6835;BME280;3455;42.150;24.734;2023-04-26T05:53:10;67713.47;;;21.58;47.74
6835;BME280;3455;42.150;24.734;2023-04-26T05:55:37;67770.31;;;22.22;46.79
6835;BME280;3455;42.150;24.734;2023-04-26T05:58:05;67801.88;;;22.22;46.52
6835;BME280;3455;42.150;24.734;2023-04-26T06:00:32;67662.97;;;21.70;47.93
6835;BME280;3455;42.150;24.734;2023-04-26T06:02:58;67691.19;;;21.61;48.29
6835;BME280;3455;42.150;24.734;2023-04-26T06:05:25;67767.31;;;22.14;47.35
6835;BME280;3455;42.150;24.734;2023-04-26T06:07:52;67701.03;;;22.29;45.34
6835;BME280;3455;42.150;24.734;2023-04-26T06:10:19;67644.72;;;21.29;46.37
6835;BME280;3455;42.150;24.734;2023-04-26T06:12:46;67778.50;;;22.29;45.43
6835;BME280;3455;42.150;24.734;2023-04-26T06:15:14;67918.25;;;23.33;43.09
6835;BME280;3455;42.150;24.734;2023-04-26T06:17:41;67767.81;;;22.10;44.81
6835;BME280;3455;42.150;24.734;2023-04-26T06:20:08;67739.63;;;21.76;44.78
6835;BME280;3455;42.150;24.734;2023-04-26T06:22:35;67690.34;;;21.47;45.27
6835;BME280;3455;42.150;24.734;2023-04-26T06:25:03;67535.41;;;20.15;48.44
6835;BME280;3455;42.150;24.734;2023-04-26T06:27:30;67502.25;;;19.86;50.28
6835;BME280;3455;42.150;24.734;2023-04-26T06:29:57;67472.34;;;19.77;50.47
6835;BME280;3455;42.150;24.734;2023-04-26T06:32:26;67497.69;;;19.86;51.14
6835;BME280;3455;42.150;24.734;2023-04-26T06:34:52;67681.03;;;21.70;49.71
6835;BME280;3455;42.150;24.734;2023-04-26T06:37:19;67779.56;;;22.41;45.91
6835;BME280;3455;42.150;24.734;2023-04-26T06:39:46;67682.78;;;21.72;46.80
6835;BME280;3455;42.150;24.734;2023-04-26T06:42:12;67691.00;;;21.52;47.25
6835;BME280;3455;42.150;24.734;2023-04-26T06:44:39;67707.81;;;21.62;46.43
6835;BME280;3455;42.150;24.734;2023-04-26T06:47:06;67755.47;;;21.95;46.06
6835;BME280;3455;42.150;24.734;2023-04-26T06:49:35;67717.38;;;21.52;46.65
6835;BME280;3455;42.150;24.734;2023-04-26T06:52:02;67558.50;;;20.53;47.15
6835;BME280;3455;42.150;24.734;2023-04-26T06:54:31;67549.34;;;20.54;48.22
6835;BME280;3455;42.150;24.734;2023-04-26T06:56:58;67533.31;;;20.54;49.22
6835;BME280;3455;42.150;24.734;2023-04-26T06:59:25;67598.34;;;20.70;49.49
6835;BME280;3455;42.150;24.734;2023-04-26T07:01:52;67698.50;;;21.54;49.40
6835;BME280;3455;42.150;24.734;2023-04-26T07:04:19;67751.81;;;22.14;46.71
6835;BME280;3455;42.150;24.734;2023-04-26T07:06:47;67808.25;;;22.55;44.23
6835;BME280;3455;42.150;24.734;2023-04-26T07:09:14;67712.81;;;21.53;46.19
6835;BME280;3455;42.150;24.734;2023-04-26T07:11:44;67706.41;;;21.63;47.08
6835;BME280;3455;42.150;24.734;2023-04-26T07:14:10;67694.78;;;21.42;46.17
6835;BME280;3455;42.150;24.734;2023-04-26T07:16:37;67620.34;;;20.96;48.84
6835;BME280;3455;42.150;24.734;2023-04-26T07:19:05;67695.44;;;21.74;46.08
6835;BME280;3455;42.150;24.734;2023-04-26T07:21:31;67787.66;;;22.28;44.11
6835;BME280;3455;42.150;24.734;2023-04-26T07:24:00;67791.34;;;22.40;43.81
6835;BME280;3455;42.150;24.734;2023-04-26T07:26:27;67837.41;;;22.65;43.93
6835;BME280;3455;42.150;24.734;2023-04-26T07:28:54;67804.75;;;22.52;43.27
6835;BME280;3455;42.150;24.734;2023-04-26T07:31:21;67851.34;;;22.88;42.63
6835;BME280;3455;42.150;24.734;2023-04-26T07:33:48;67833.81;;;22.41;44.74
6835;BME280;3455;42.150;24.734;2023-04-26T07:36:14;67868.88;;;23.04;41.74
6835;BME280;3455;42.150;24.734;2023-04-26T07:38:42;67884.44;;;23.24;41.00
6835;BME280;3455;42.150;24.734;2023-04-26T07:41:10;67835.81;;;22.88;40.65
6835;BME280;3455;42.150;24.734;2023-04-26T07:43:37;67705.09;;;21.69;42.70
6835;BME280;3455;42.150;24.734;2023-04-26T07:46:04;67705.41;;;21.55;43.80
6835;BME280;3455;42.150;24.734;2023-04-26T07:48:31;67669.38;;;21.60;43.19
6835;BME280;3455;42.150;24.734;2023-04-26T07:51:05;67645.72;;;21.21;43.74
6835;BME280;3455;42.150;24.734;2023-04-26T07:53:32;67638.31;;;21.24;44.32
6835;BME280;3455;42.150;24.734;2023-04-26T07:55:59;67627.03;;;20.89;44.52
6835;BME280;3455;42.150;24.734;2023-04-26T07:58:27;67578.50;;;20.80;45.35
6835;BME280;3455;42.150;24.734;2023-04-26T08:00:54;67648.53;;;21.19;45.02
6835;BME280;3455;42.150;24.734;2023-04-26T08:03:21;67683.91;;;21.41;44.12
6835;BME280;3455;42.150;24.734;2023-04-26T08:05:47;67726.41;;;21.74;44.40
6835;BME280;3455;42.150;24.734;2023-04-26T08:08:14;67869.34;;;23.00;41.17
6835;BME280;3455;42.150;24.734;2023-04-26T08:10:41;67956.16;;;23.62;40.21
6835;BME280;3455;42.150;24.734;2023-04-26T08:13:08;68155.75;;;24.99;38.19
6835;BME280;3455;42.150;24.734;2023-04-26T08:15:36;68238.44;;;25.96;36.23
6835;BME280;3455;42.150;24.734;2023-04-26T08:18:03;68261.13;;;26.07;35.61
6835;BME280;3455;42.150;24.734;2023-04-26T08:20:30;68540.25;;;27.79;32.32
6835;BME280;3455;42.150;24.734;2023-04-26T08:22:57;68821.16;;;29.78;29.51
6835;BME280;3455;42.150;24.734;2023-04-26T08:25:24;69046.47;;;31.15;27.25
6835;BME280;3455;42.150;24.734;2023-04-26T08:27:51;68971.41;;;30.77;26.72
6835;BME280;3455;42.150;24.734;2023-04-26T08:30:18;68752.44;;;29.11;29.24
6835;BME280;3455;42.150;24.734;2023-04-26T08:32:47;68910.22;;;29.56;27.89
6835;BME280;3455;42.150;24.734;2023-04-26T08:35:13;68684.69;;;29.00;28.33
6835;BME280;3455;42.150;24.734;2023-04-26T08:37:40;68703.78;;;29.15;28.12
6835;BME280;3455;42.150;24.734;2023-04-26T08:40:07;68619.25;;;28.66;29.06
6835;BME280;3455;42.150;24.734;2023-04-26T08:42:38;68565.41;;;28.32;28.26
6835;BME280;3455;42.150;24.734;2023-04-26T08:45:07;68322.31;;;26.42;30.56
6835;BME280;3455;42.150;24.734;2023-04-26T08:47:39;68535.94;;;27.98;29.38
6835;BME280;3455;42.150;24.734;2023-04-26T08:50:12;68385.63;;;26.98;30.25
6835;BME280;3455;42.150;24.734;2023-04-26T08:52:40;68470.31;;;27.49;27.77
6835;BME280;3455;42.150;24.734;2023-04-26T08:55:08;68295.94;;;26.35;29.62
6835;BME280;3455;42.150;24.734;2023-04-26T08:57:35;68359.59;;;26.77;29.19
6835;BME280;3455;42.150;24.734;2023-04-26T09:00:04;68282.41;;;26.03;30.21
6835;BME280;3455;42.150;24.734;2023-04-26T09:02:34;68234.41;;;25.97;30.21
6835;BME280;3455;42.150;24.734;2023-04-26T09:05:01;68201.97;;;25.55;30.52
6835;BME280;3455;42.150;24.734;2023-04-26T09:07:31;68218.31;;;26.01;29.16
6835;BME280;3455;42.150;24.734;2023-04-26T09:09:59;68331.63;;;26.83;28.83
6835;BME280;3455;42.150;24.734;2023-04-26T09:12:26;68497.38;;;27.77;27.23
6835;BME280;3455;42.150;24.734;2023-04-26T09:14:52;68886.91;;;30.26;26.57
6835;BME280;3455;42.150;24.734;2023-04-26T09:17:24;68919.38;;;30.59;24.53
6835;BME280;3455;42.150;24.734;2023-04-26T09:19:51;69072.88;;;31.50;22.88
6835;BME280;3455;42.150;24.734;2023-04-26T09:22:27;69182.16;;;31.92;22.23
6835;BME280;3455;42.150;24.734;2023-04-26T09:24:55;69140.25;;;31.56;23.47
6835;BME280;3455;42.150;24.734;2023-04-26T09:27:31;68853.44;;;30.22;24.57
6835;BME280;3455;42.150;24.734;2023-04-26T09:29:59;68758.19;;;29.44;25.75
6835;BME280;3455;42.150;24.734;2023-04-26T09:32:42;68484.47;;;27.66;27.58
6835;BME280;3455;42.150;24.734;2023-04-26T09:35:20;68234.16;;;26.20;28.31
6835;BME280;3455;42.150;24.734;2023-04-26T09:37:50;68017.47;;;24.84;31.05
6835;BME280;3455;42.150;24.734;2023-04-26T09:40:20;68047.78;;;24.70;31.97
6835;BME280;3455;42.150;24.734;2023-04-26T09:42:55;68225.59;;;25.90;30.22
6835;BME280;3455;42.150;24.734;2023-04-26T09:45:23;68353.69;;;26.88;29.49
6835;BME280;3455;42.150;24.734;2023-04-26T09:47:50;68421.50;;;27.34;28.63
6835;BME280;3455;42.150;24.734;2023-04-26T09:50:25;68332.59;;;26.70;29.56
6835;BME280;3455;42.150;24.734;2023-04-26T09:52:52;68315.59;;;26.55;29.63
6835;BME280;3455;42.150;24.734;2023-04-26T09:55:27;68343.72;;;26.79;30.93
6835;BME280;3455;42.150;24.734;2023-04-26T09:57:55;68396.97;;;27.22;29.46
6835;BME280;3455;42.150;24.734;2023-04-26T10:00:23;68577.25;;;28.11;29.84
6835;BME280;3455;42.150;24.734;2023-04-26T10:02:51;68633.25;;;28.73;30.74
6835;BME280;3455;42.150;24.734;2023-04-26T10:05:19;69131.06;;;31.66;25.34
6835;BME280;3455;42.150;24.734;2023-04-26T10:07:47;69102.88;;;31.71;25.75
6835;BME280;3455;42.150;24.734;2023-04-26T10:10:13;69094.03;;;31.43;24.57
6835;BME280;3455;42.150;24.734;2023-04-26T10:12:42;69049.41;;;31.18;25.02
6835;BME280;3455;42.150;24.734;2023-04-26T10:15:10;69157.38;;;31.71;23.70
6835;BME280;3455;42.150;24.734;2023-04-26T10:17:37;69024.63;;;31.37;23.68
6835;BME280;3455;42.150;24.734;2023-04-26T10:20:08;69214.25;;;32.34;23.49
6835;BME280;3455;42.150;24.734;2023-04-26T10:22:43;68986.41;;;31.09;24.71
6835;BME280;3455;42.150;24.734;2023-04-26T10:25:11;68522.06;;;27.99;28.49
6835;BME280;3455;42.150;24.734;2023-04-26T10:27:51;68422.72;;;27.40;29.21
6835;BME280;3455;42.150;24.734;2023-04-26T10:30:19;68432.03;;;27.43;29.28
6835;BME280;3455;42.150;24.734;2023-04-26T10:33:20;68190.78;;;25.77;31.81
6835;BME280;3455;42.150;24.734;2023-04-26T10:36:07;68150.78;;;25.29;31.67
6835;BME280;3455;42.150;24.734;2023-04-26T10:38:36;67999.03;;;24.14;32.81
6835;BME280;3455;42.150;24.734;2023-04-26T10:44:39;67670.81;;;21.91;36.41
6835;BME280;3455;42.150;24.734;2023-04-26T10:47:19;67672.88;;;21.63;37.37
6835;BME280;3455;42.150;24.734;2023-04-26T10:49:46;67619.88;;;21.80;38.01
6835;BME280;3455;42.150;24.734;2023-04-26T10:52:14;67780.72;;;22.26;38.79
6835;BME280;3455;42.150;24.734;2023-04-26T10:54:52;67730.81;;;21.80;38.71
6835;BME280;3455;42.150;24.734;2023-04-26T10:57:21;67670.56;;;21.61;42.64
6835;BME280;3455;42.150;24.734;2023-04-26T11:00:19;67644.84;;;21.50;40.25
6835;BME280;3455;42.150;24.734;2023-04-26T11:02:52;67682.44;;;21.53;40.69
6835;BME280;3455;42.150;24.734;2023-04-26T11:05:40;67610.78;;;21.22;39.78
6835;BME280;3455;42.150;24.734;2023-04-26T11:08:17;67614.44;;;21.03;40.31
6835;BME280;3455;42.150;24.734;2023-04-26T11:10:49;67599.47;;;20.98;39.82
6835;BME280;3455;42.150;24.734;2023-04-26T11:13:17;67592.31;;;21.15;40.57
6835;BME280;3455;42.150;24.734;2023-04-26T11:15:45;67631.44;;;21.38;40.40
6835;BME280;3455;42.150;24.734;2023-04-26T11:18:13;67595.38;;;21.11;41.12
6835;BME280;3455;42.150;24.734;2023-04-26T11:20:39;67670.56;;;21.61;40.26
6835;BME280;3455;42.150;24.734;2023-04-26T11:23:06;67649.31;;;21.76;40.39
6835;BME280;3455;42.150;24.734;2023-04-26T11:25:34;67667.03;;;21.58;39.57
6835;BME280;3455;42.150;24.734;2023-04-26T11:28:04;67729.38;;;21.81;39.10
6835;BME280;3455;42.150;24.734;2023-04-26T11:30:32;67732.91;;;21.84;39.31
6835;BME280;3455;42.150;24.734;2023-04-26T11:33:01;67645.91;;;21.62;39.62
6835;BME280;3455;42.150;24.734;2023-04-26T11:35:32;67659.88;;;21.43;38.97
6835;BME280;3455;42.150;24.734;2023-04-26T11:38:02;67657.41;;;21.63;39.37
6835;BME280;3455;42.150;24.734;2023-04-26T11:40:30;67713.09;;;21.99;37.63
6835;BME280;3455;42.150;24.734;2023-04-26T11:42:59;67673.38;;;21.91;37.93
6835;BME280;3455;42.150;24.734;2023-04-26T11:45:27;67635.41;;;21.53;37.51
6835;BME280;3455;42.150;24.734;2023-04-26T11:47:54;67702.03;;;21.89;36.85
6835;BME280;3455;42.150;24.734;2023-04-26T11:50:24;67659.38;;;21.47;37.98
6835;BME280;3455;42.150;24.734;2023-04-26T11:52:54;67675.72;;;21.61;37.96
6835;BME280;3455;42.150;24.734;2023-04-26T11:55:27;67664.16;;;21.28;38.82
6835;BME280;3455;42.150;24.734;2023-04-26T11:57:55;67552.63;;;20.75;39.73
6835;BME280;3455;42.150;24.734;2023-04-26T12:00:23;67618.09;;;21.15;39.74
6835;BME280;3455;42.150;24.734;2023-04-26T12:02:50;67608.78;;;21.07;38.79
6835;BME280;3455;42.150;24.734;2023-04-26T12:05:23;67619.25;;;21.16;38.25
6835;BME280;3455;42.150;24.734;2023-04-26T12:07:51;67578.50;;;20.80;38.41
6835;BME280;3455;42.150;24.734;2023-04-26T12:10:19;67463.94;;;20.15;39.85
6835;BME280;3455;42.150;24.734;2023-04-26T12:12:47;67591.31;;;20.91;38.84
6835;BME280;3455;42.150;24.734;2023-04-26T12:15:15;67433.56;;;19.68;43.17
6835;BME280;3455;42.150;24.734;2023-04-26T12:17:55;67541.03;;;20.38;44.26
6835;BME280;3455;42.150;24.734;2023-04-26T12:20:31;67605.63;;;21.22;42.99
6835;BME280;3455;42.150;24.734;2023-04-26T12:22:59;67577.44;;;21.15;43.11
6835;BME280;3455;42.150;24.734;2023-04-26T12:25:27;67651.19;;;21.24;43.57
6835;BME280;3455;42.150;24.734;2023-04-26T12:27:54;67717.00;;;21.93;42.75
6835;BME280;3455;42.150;24.734;2023-04-26T12:30:21;67698.94;;;21.77;42.61
6835;BME280;3455;42.150;24.734;2023-04-26T12:32:47;67770.75;;;22.61;41.93
6835;BME280;3455;42.150;24.734;2023-04-26T12:35:14;67728.34;;;22.32;41.65
6835;BME280;3455;42.150;24.734;2023-04-26T12:37:42;67765.22;;;21.94;43.39
6835;BME280;3455;42.150;24.734;2023-04-26T12:40:10;67756.84;;;22.37;43.21
6835;BME280;3455;42.150;24.734;2023-04-26T12:42:37;67742.81;;;22.09;44.04
6835;BME280;3455;42.150;24.734;2023-04-26T12:45:05;67702.03;;;21.89;47.31
6835;BME280;3455;42.150;24.734;2023-04-26T12:47:32;67605.19;;;20.99;49.92
6835;BME280;3455;42.150;24.734;2023-04-26T12:49:59;67579.50;;;21.04;49.99
6835;BME280;3455;42.150;24.734;2023-04-26T12:52:26;67584.31;;;20.85;49.23
6835;BME280;3455;42.150;24.734;2023-04-26T12:54:54;67606.44;;;21.05;45.86
6835;BME280;3455;42.150;24.734;2023-04-26T12:57:21;67569.16;;;20.72;46.60
6835;BME280;3455;42.150;24.734;2023-04-26T12:59:48;67549.50;;;20.91;47.57
6835;BME280;3455;42.150;24.734;2023-04-26T13:02:15;67603.41;;;20.66;48.36
6835;BME280;3455;42.150;24.734;2023-04-26T13:04:41;67571.50;;;20.74;43.65
6835;BME280;3455;42.150;24.734;2023-04-26T13:07:08;67560.22;;;20.82;45.49
6835;BME280;3455;42.150;24.734;2023-04-26T13:09:35;67556.28;;;20.72;45.87
6835;BME280;3455;42.150;24.734;2023-04-26T13:12:03;67617.06;;;20.91;45.97
6835;BME280;3455;42.150;24.734;2023-04-26T13:14:30;67559.66;;;20.54;44.54
6835;BME280;3455;42.150;24.734;2023-04-26T13:16:57;67616.94;;;21.14;43.99
6835;BME280;3455;42.150;24.734;2023-04-26T13:19:24;67568.50;;;20.67;44.39